Time;durP1;ratioP1;P1;durP2;ratioP2;P2;SDS_P1;SDS_P2;PMS_P1;PMS_P2;Temp;Humidity;BMP_temperature;BMP_pressure;BME280_temperature;BME280_humidity;BME280_pressure;Samples;Min_cycle;Max_cycle;Signal;HPM_P1;HPM_P2
2020/12/05 00:01:17;;;;;;;1999.90;999.90;;;;;;;-3.85;76.89;102578.70;1755842;80;21075;-69
2020/12/05 00:03:45;;;;;;;1999.90;999.90;;;;;;;-3.84;77.11;102580.39;1784192;79;21191;-70
2020/12/05 00:06:13;;;;;;;1999.90;999.90;;;;;;;-3.81;77.19;102584.62;1781852;79;21096;-70
2020/12/05 00:08:41;;;;;;;1999.90;999.90;;;;;;;-3.83;77.07;102580.73;1755981;81;21135;-61
2020/12/05 00:11:09;;;;;;;1999.90;999.90;;;;;;;-3.84;77.30;102585.80;1782245;79;21090;-62
2020/12/05 00:13:37;;;;;;;1999.90;999.90;;;;;;;-3.86;77.33;102589.17;1788318;79;21091;-71
2020/12/05 00:16:05;;;;;;;1999.90;999.90;;;;;;;-3.91;77.72;102588.31;1744678;81;21191;-61
2020/12/05 00:18:33;;;;;;;1999.90;999.90;;;;;;;-3.96;77.54;102581.20;1784872;79;21148;-61
2020/12/05 00:21:01;;;;;;;1999.90;999.90;;;;;;;-3.98;78.02;102594.55;1756951;80;21572;-68
2020/12/05 00:23:29;;;;;;;1999.90;999.90;;;;;;;-4.02;78.42;102585.91;1786424;79;21553;-61
2020/12/05 00:25:58;;;;;;;1999.90;999.90;;;;;;;-4.05;78.60;102588.09;1759309;80;21099;-70
2020/12/05 00:28:26;;;;;;;1999.90;999.90;;;;;;;-4.05;78.94;102594.85;1782906;79;21230;-70
2020/12/05 00:30:54;;;;;;;1999.90;999.90;;;;;;;-4.08;79.05;102593.83;1780952;79;21095;-61
2020/12/05 00:33:22;;;;;;;1999.90;999.90;;;;;;;-4.07;79.49;102590.11;1756387;80;21124;-61
2020/12/05 00:35:50;;;;;;;1999.90;999.90;;;;;;;-4.09;79.04;102594.33;1753958;80;21106;-70
2020/12/05 00:38:18;;;;;;;1999.90;999.90;;;;;;;-4.10;79.68;102588.58;1783049;79;21498;-68
2020/12/05 00:40:48;;;;;;;1999.90;999.90;;;;;;;-4.13;79.49;102592.11;1731232;81;21587;-69
2020/12/05 00:43:16;;;;;;;1999.90;999.90;;;;;;;-4.15;79.81;102599.55;1787653;79;21007;-69
2020/12/05 00:45:44;;;;;;;1999.90;999.90;;;;;;;-4.16;79.83;102588.38;1788396;79;21158;-69
2020/12/05 00:48:13;;;;;;;1999.90;999.90;;;;;;;-4.15;80.01;102596.84;1794180;79;21255;-62
2020/12/05 00:50:41;;;;;;;1999.90;999.90;;;;;;;-4.15;80.38;102594.13;1786826;79;21490;-62
2020/12/05 00:53:10;;;;;;;1999.90;999.90;;;;;;;-4.17;80.72;102591.59;1761587;79;21453;-61
2020/12/05 00:55:38;;;;;;;1999.90;999.90;;;;;;;-4.19;80.90;102576.54;1787190;79;21666;-70
2020/12/05 00:58:06;;;;;;;1999.90;999.90;;;;;;;-4.22;80.96;102576.36;1792349;79;20983;-70
2020/12/05 01:00:34;;;;;;;1999.90;999.90;;;;;;;-4.23;80.95;102585.48;1789588;79;21075;-61
2020/12/05 01:03:02;;;;;;;1999.90;999.90;;;;;;;-4.27;81.22;102584.95;1791252;79;21105;-61
2020/12/05 01:05:30;;;;;;;1999.90;999.90;;;;;;;-4.27;81.58;102572.79;1788890;79;21419;-69
2020/12/05 01:07:58;;;;;;;1999.90;999.90;;;;;;;-4.26;81.56;102570.43;1788778;79;21003;-62
2020/12/05 01:10:27;;;;;;;1999.90;999.90;;;;;;;-4.23;81.71;102574.16;1787735;79;20964;-64
2020/12/05 01:12:54;;;;;;;1999.90;999.90;;;;;;;-4.19;81.94;102571.13;1785356;79;21543;-62
2020/12/05 01:15:22;;;;;;;1999.90;999.90;;;;;;;-4.18;82.24;102575.53;1784176;79;21150;-65
2020/12/05 01:17:50;;;;;;;1999.90;999.90;;;;;;;-4.22;82.42;102574.50;1787132;79;21553;-70
2020/12/05 01:20:17;;;;;;;1999.90;999.90;;;;;;;-4.22;82.71;102575.01;1789045;79;21115;-61
2020/12/05 01:22:45;;;;;;;1999.90;999.90;;;;;;;-4.22;82.92;102572.30;1786963;79;21150;-61
2020/12/05 01:25:14;;;;;;;1999.90;999.90;;;;;;;-4.24;83.19;102576.52;1782573;79;21139;-70
2020/12/05 01:27:43;;;;;;;1999.90;999.90;;;;;;;-4.23;83.47;102575.52;1791292;79;21115;-62
2020/12/05 01:30:11;;;;;;;1999.90;999.90;;;;;;;-4.22;83.93;102567.74;1790121;79;21985;-69
2020/12/05 01:32:39;;;;;;;1999.90;999.90;;;;;;;-4.20;83.98;102571.64;1789682;79;21100;-61
2020/12/05 01:35:07;;;;;;;1999.90;999.90;;;;;;;-4.19;84.21;102582.80;1784197;79;21111;-69
2020/12/05 01:37:35;;;;;;;1999.90;999.90;;;;;;;-4.18;84.26;102580.44;1789375;79;21656;-61
2020/12/05 01:40:03;;;;;;;1999.90;999.90;;;;;;;-4.17;84.26;102580.78;1784598;79;21273;-70
2020/12/05 01:42:30;;;;;;;1999.90;999.90;;;;;;;-4.14;84.32;102584.50;1786572;79;21357;-69
2020/12/05 01:45:00;;;;;;;1999.90;999.90;;;;;;;-4.14;84.34;102581.80;1779514;79;20952;-61
2020/12/05 01:47:28;;;;;;;1999.90;999.90;;;;;;;-4.14;84.36;102579.09;1787739;79;21123;-61
2020/12/05 01:49:57;;;;;;;1999.90;999.90;;;;;;;-4.12;84.58;102584.34;1783954;79;21138;-61
2020/12/05 01:52:25;;;;;;;1999.90;999.90;;;;;;;-4.11;84.45;102584.69;1787000;79;21178;-70
2020/12/05 01:54:52;;;;;;;1999.90;999.90;;;;;;;-4.10;84.45;102590.44;1786777;79;22270;-69
2020/12/05 01:57:21;;;;;;;1999.90;999.90;;;;;;;-4.09;84.62;102593.48;1789795;79;21157;-70
2020/12/05 01:59:48;;;;;;;1999.90;999.90;;;;;;;-4.08;84.68;102594.67;1789081;79;20991;-69
2020/12/05 02:02:16;;;;;;;1999.90;999.90;;;;;;;-4.04;84.91;102595.20;1787051;79;21043;-69
2020/12/05 02:04:56;;;;;;;1999.90;999.90;;;;;;;-4.04;84.70;102591.98;1785089;79;21117;-61
2020/12/05 02:07:38;;;;;;;1999.90;999.90;;;;;;;-4.03;84.73;102599.09;1773358;79;22254;-68
2020/12/05 02:10:19;;;;;;;1999.90;999.90;;;;;;;-3.94;84.72;102590.50;1862940;76;28202;-70
2020/12/05 02:13:00;;;;;;;1999.90;999.90;;;;;;;-3.99;84.64;102595.55;1837922;77;20956;-62
2020/12/05 02:15:29;;;;;;;1999.90;999.90;;;;;;;-3.98;84.55;102594.03;1842552;77;21332;-63
2020/12/05 02:18:05;;;;;;;1999.90;999.90;;;;;;;-3.94;84.60;102591.85;1816712;77;21023;-70
2020/12/05 02:20:36;;;;;;;1999.90;999.90;;;;;;;-3.91;84.59;102590.17;1839494;77;20921;-62
2020/12/05 02:23:12;;;;;;;1999.90;999.90;;;;;;;-3.86;84.75;102586.97;1842821;77;21612;-70
2020/12/05 02:25:47;;;;;;;1999.90;999.90;;;;;;;-3.86;84.65;102585.12;1838681;77;21729;-70
2020/12/05 02:28:19;;;;;;;1999.90;999.90;;;;;;;-3.84;84.61;102588.50;1847367;77;20964;-70
2020/12/05 02:30:47;;;;;;;1999.90;999.90;;;;;;;-3.80;84.63;102590.38;1842177;77;21000;-70
2020/12/05 02:33:15;;;;;;;1999.90;999.90;;;;;;;-3.78;84.70;102586.49;1838580;77;20965;-71
2020/12/05 02:35:45;;;;;;;1999.90;999.90;;;;;;;-3.76;84.69;102593.94;1832960;77;21099;-62
2020/12/05 02:38:29;;;;;;;1999.90;999.90;;;;;;;-3.73;84.60;102600.38;1836335;77;21243;-70
2020/12/05 02:40:58;;;;;;;1999.90;999.90;;;;;;;-3.73;84.40;102599.02;1838759;77;21897;-62
2020/12/05 02:43:26;;;;;;;1999.90;999.90;;;;;;;-3.70;84.46;102595.14;1835732;77;21118;-70
2020/12/05 02:45:55;;;;;;;1999.90;999.90;;;;;;;-3.67;84.50;102596.16;1839202;77;20957;-61
2020/12/05 02:48:23;;;;;;;1999.90;999.90;;;;;;;-3.63;84.61;102592.11;1847872;77;21071;-62
2020/12/05 02:50:51;;;;;;;1999.90;999.90;;;;;;;-3.60;84.64;102593.98;1837168;77;21094;-70
2020/12/05 02:53:19;;;;;;;1999.90;999.90;;;;;;;-3.55;84.64;102597.55;1843140;77;22260;-62
2020/12/05 02:55:48;;;;;;;1999.90;999.90;;;;;;;-3.50;84.64;102605.16;1834804;77;20964;-70
2020/12/05 02:58:16;;;;;;;1999.90;999.90;;;;;;;-3.47;84.45;102602.13;1838572;77;21004;-71
2020/12/05 03:00:43;;;;;;;1999.90;999.90;;;;;;;-3.44;84.23;102612.63;1853123;77;21285;-62
2020/12/05 03:03:11;;;;;;;1999.90;999.90;;;;;;;-3.44;84.05;102605.85;1843130;77;21502;-71
2020/12/05 03:05:40;;;;;;;1999.90;999.90;;;;;;;-3.46;83.26;102622.77;1836675;77;21236;-70
2020/12/05 03:08:09;;;;;;;1999.90;999.90;;;;;;;-3.55;82.33;102620.55;1839841;77;21174;-70
2020/12/05 03:10:36;;;;;;;1999.90;999.90;;;;;;;-3.64;81.71;102619.68;1840609;77;20969;-64
2020/12/05 03:13:04;;;;;;;1999.90;999.90;;;;;;;-3.72;81.19;102618.81;1843875;77;21138;-69
2020/12/05 03:15:32;;;;;;;1999.90;999.90;;;;;;;-3.77;81.27;102627.42;1835329;77;20917;-62
2020/12/05 03:18:00;;;;;;;1999.90;999.90;;;;;;;-3.79;81.45;102617.77;1843310;77;22281;-62
2020/12/05 03:20:28;;;;;;;1999.90;999.90;;;;;;;-3.81;80.93;102624.70;1836937;77;21605;-70
2020/12/05 03:22:56;;;;;;;1999.90;999.90;;;;;;;-3.84;80.96;102622.33;1841764;77;20961;-70
2020/12/05 03:25:24;;;;;;;1999.90;999.90;;;;;;;-3.86;80.53;102620.80;1837853;77;21106;-70
2020/12/05 03:27:52;;;;;;;1999.90;999.90;;;;;;;-3.88;80.58;102611.99;1843259;77;21091;-63
2020/12/05 03:30:20;;;;;;;1999.90;999.90;;;;;;;-3.90;80.62;102610.80;1830476;77;22266;-70
2020/12/05 03:32:48;;;;;;;1999.90;999.90;;;;;;;-3.91;80.16;102614.02;1838704;77;20952;-70
2020/12/05 03:35:16;;;;;;;1999.90;999.90;;;;;;;-3.99;79.90;102609.08;1834565;77;20976;-62
2020/12/05 03:37:44;;;;;;;1999.90;999.90;;;;;;;-4.02;80.04;102623.77;1838257;77;20965;-70
2020/12/05 03:40:12;;;;;;;1999.90;999.90;;;;;;;-4.07;79.94;102618.00;1838498;77;20909;-70
2020/12/05 03:42:40;;;;;;;1999.90;999.90;;;;;;;-4.11;80.19;102623.39;1835181;77;21318;-62
2020/12/05 03:45:08;;;;;;;1999.90;999.90;;;;;;;-4.11;80.14;102623.90;1835768;77;21507;-62
2020/12/05 03:47:36;;;;;;;1999.90;999.90;;;;;;;-4.14;80.18;102617.46;1842398;77;21549;-71
2020/12/05 03:50:06;;;;;;;1999.90;999.90;;;;;;;-4.15;80.25;102616.61;1840609;77;21036;-62
2020/12/05 03:52:33;;;;;;;1999.90;999.90;;;;;;;-4.15;80.28;102622.53;1839293;77;21518;-70
2020/12/05 03:55:01;;;;;;;1999.90;999.90;;;;;;;-4.18;80.23;102633.66;1843950;77;21321;-62
2020/12/05 03:57:29;;;;;;;1999.90;999.90;;;;;;;-4.23;80.27;102636.34;1839297;77;21597;-62
2020/12/05 03:59:57;;;;;;;1999.90;999.90;;;;;;;-4.25;80.33;102637.02;1838521;77;20913;-69
2020/12/05 04:02:25;;;;;;;1999.90;999.90;;;;;;;-4.24;80.54;102636.51;1838279;77;21526;-62
2020/12/05 04:04:53;;;;;;;1999.90;999.90;;;;;;;-4.24;80.34;102639.21;1830595;77;20937;-69
2020/12/05 04:07:21;;;;;;;1999.90;999.90;;;;;;;-4.28;80.09;102645.45;1837856;77;21323;-62
2020/12/05 04:09:50;;;;;;;1999.90;999.90;;;;;;;-4.31;80.09;102639.01;1832081;77;20976;-70
2020/12/05 04:12:18;;;;;;;1999.90;999.90;;;;;;;-4.35;80.12;102641.69;1838034;77;21135;-70
2020/12/05 04:14:46;;;;;;;1999.90;999.90;;;;;;;-4.41;79.60;102644.18;1834924;77;21079;-70
2020/12/05 04:17:14;;;;;;;1999.90;999.90;;;;;;;-4.48;79.85;102643.12;1837015;77;20965;-69
2020/12/05 04:19:42;;;;;;;1999.90;999.90;;;;;;;-4.51;80.13;102652.39;1834000;77;22100;-62
2020/12/05 04:22:10;;;;;;;1999.90;999.90;;;;;;;-4.51;80.15;102659.15;1841193;77;21119;-70
2020/12/05 04:24:38;;;;;;;1999.90;999.90;;;;;;;-4.55;79.81;102657.27;1843968;77;20948;-69
2020/12/05 04:27:05;;;;;;;1999.90;999.90;;;;;;;-4.61;79.57;102653.00;1839164;77;21107;-70
2020/12/05 04:29:33;;;;;;;1999.90;999.90;;;;;;;-4.65;79.79;102652.97;1828839;77;21119;-69
2020/12/05 04:32:01;;;;;;;1999.90;999.90;;;;;;;-4.70;79.60;102648.03;1841277;77;21534;-62
2020/12/05 04:34:29;;;;;;;1999.90;999.90;;;;;;;-4.78;79.61;102650.67;1837846;77;21107;-70
2020/12/05 04:36:57;;;;;;;1999.90;999.90;;;;;;;-4.87;79.46;102651.11;1813493;77;21147;-69
2020/12/05 04:39:25;;;;;;;1999.90;999.90;;;;;;;-4.93;79.66;102651.73;1833464;77;21127;-70
2020/12/05 04:41:53;;;;;;;1999.90;999.90;;;;;;;-4.98;79.83;102650.00;1835821;77;21233;-70
2020/12/05 04:44:21;;;;;;;1999.90;999.90;;;;;;;-5.02;79.78;102655.38;1825035;77;21441;-61
2020/12/05 04:46:49;;;;;;;1999.90;999.90;;;;;;;-5.08;79.38;102658.69;1837089;77;20953;-62
2020/12/05 04:49:17;;;;;;;1999.90;999.90;;;;;;;-5.14;79.23;102659.81;1836193;77;20950;-62
2020/12/05 04:51:49;;;;;;;1999.90;999.90;;;;;;;-5.22;78.83;102662.75;1837384;77;21005;-61
2020/12/05 04:54:19;;;;;;;1999.90;999.90;;;;;;;-5.30;78.84;102663.17;1815170;77;21503;-62
2020/12/05 04:56:47;;;;;;;1999.90;999.90;;;;;;;-5.36;78.85;102666.48;1816890;77;21347;-69
2020/12/05 04:59:14;;;;;;;1999.90;999.90;;;;;;;-5.41;78.50;102684.98;1826249;77;21586;-62
2020/12/05 05:01:42;;;;;;;1999.90;999.90;;;;;;;-5.52;78.24;102678.80;1833902;77;20968;-62
2020/12/05 05:04:10;;;;;;;1999.90;999.90;;;;;;;-5.60;78.02;102683.25;1838474;77;21083;-67
2020/12/05 05:06:37;;;;;;;1999.90;999.90;;;;;;;-5.72;77.67;102688.00;1835493;77;20953;-62
2020/12/05 05:09:05;;;;;;;1999.90;999.90;;;;;;;-5.82;77.81;102683.65;1838733;77;21364;-70
2020/12/05 05:11:37;;;;;;;1999.90;999.90;;;;;;;-5.90;78.01;102688.47;1815016;77;20988;-70
2020/12/05 05:16:42;;;;;;;1999.90;999.90;;;;;;;-5.98;77.98;102699.15;1796905;77;28684;-69
2020/12/05 05:19:22;;;;;;;1999.90;999.90;;;;;;;-6.08;77.74;102711.81;1768169;80;21025;-71
2020/12/05 05:21:51;;;;;;;1999.90;999.90;;;;;;;-6.13;77.56;102701.97;1733690;81;20980;-63
2020/12/05 05:24:21;;;;;;;1999.90;999.90;;;;;;;-6.21;77.11;102705.40;1727689;82;21590;-71
2020/12/05 05:27:04;;;;;;;1999.90;999.90;;;;;;;-6.31;76.61;102700.53;1726312;82;21032;-71
2020/12/05 05:32:28;;;;;;;1999.90;999.90;;;;;;;-6.47;76.40;102701.14;1823672;76;28308;-61
2020/12/05 05:35:12;;;;;;;1999.90;999.90;;;;;;;-6.57;76.69;102705.20;1796090;79;21016;-69
2020/12/05 05:37:46;;;;;;;1999.90;999.90;;;;;;;-6.58;76.63;102703.49;1823846;76;28144;-61
2020/12/05 05:40:16;;;;;;;1999.90;999.90;;;;;;;-6.66;76.53;102707.41;1793153;78;20894;-69
2020/12/05 05:42:43;;;;;;;1999.90;999.90;;;;;;;-6.68;76.69;102713.43;1757293;79;21416;-62
2020/12/05 05:45:23;;;;;;;1999.90;999.90;;;;;;;-6.71;76.58;102709.67;1796004;79;21115;-70
2020/12/05 05:47:53;;;;;;;1999.90;999.90;;;;;;;-6.72;76.15;102712.52;1800994;78;20961;-70
2020/12/05 05:50:24;;;;;;;1999.90;999.90;;;;;;;-6.73;76.47;102709.47;1797027;79;20917;-70
2020/12/05 05:53:00;;;;;;;1999.90;999.90;;;;;;;-6.72;76.66;102709.33;1800104;79;20976;-63
2020/12/05 05:58:23;;;;;;;1999.90;999.90;;;;;;;-6.59;76.62;102719.30;1865826;76;28795;-64
2020/12/05 06:00:53;;;;;;;1999.90;999.90;;;;;;;-6.61;76.33;102727.17;1839359;77;21075;-62
2020/12/05 06:03:24;;;;;;;1999.90;999.90;;;;;;;-6.61;76.20;102732.06;1838526;77;21194;-62
2020/12/05 06:05:57;;;;;;;1999.90;999.90;;;;;;;-6.64;75.64;102726.11;1830215;77;20972;-62
2020/12/05 06:08:28;;;;;;;1999.90;999.90;;;;;;;-6.65;75.60;102738.73;1835034;77;20921;-62
2020/12/05 06:11:02;;;;;;;1999.90;999.90;;;;;;;-6.64;75.75;102747.66;1833162;77;21510;-63
2020/12/05 06:13:31;;;;;;;1999.90;999.90;;;;;;;-6.63;75.57;102750.70;1833449;77;20905;-62
2020/12/05 06:16:01;;;;;;;1999.90;999.90;;;;;;;-6.61;75.53;102754.96;1832643;77;21545;-62
2020/12/05 06:18:29;;;;;;;1999.90;999.90;;;;;;;-6.57;75.41;102755.52;1839763;77;21028;-70
2020/12/05 06:20:58;;;;;;;1999.90;999.90;;;;;;;-6.56;75.13;102751.34;1839010;77;20933;-62
2020/12/05 06:23:44;;;;;;;1999.90;999.90;;;;;;;-6.55;74.96;102749.50;1837577;77;20973;-69
2020/12/05 06:26:16;;;;;;;1999.90;999.90;;;;;;;-6.56;74.51;102755.37;1841980;77;20948;-67
2020/12/05 06:28:44;;;;;;;1999.90;999.90;;;;;;;-6.58;74.01;102752.48;1839263;77;21574;-70
2020/12/05 06:31:13;;;;;;;1999.90;999.90;;;;;;;-6.62;74.39;102753.75;1847599;77;21526;-62
2020/12/05 06:33:43;;;;;;;1999.90;999.90;;;;;;;-6.60;74.32;102759.84;1810497;77;21103;-63
2020/12/05 06:36:34;;;;;;;1999.90;999.90;;;;;;;-6.59;74.33;102754.81;1840022;77;21087;-62
2020/12/05 06:39:09;;;;;;;1999.90;999.90;;;;;;;-6.56;74.17;102759.92;1846245;77;21581;-70
2020/12/05 06:41:40;;;;;;;1999.90;999.90;;;;;;;-6.55;73.92;102751.70;1841075;77;21260;-70
2020/12/05 06:44:14;;;;;;;1999.90;999.90;;;;;;;-6.52;74.13;102755.95;1840148;77;20952;-62
2020/12/05 06:49:42;;;;;;;1999.90;999.90;;;;;;;-6.45;73.28;102750.84;1875942;75;28693;-60
2020/12/05 06:52:28;;;;;;;1999.90;999.90;;;;;;;-6.50;73.20;102753.96;1817590;78;20972;-62
2020/12/05 06:55:03;;;;;;;1999.90;999.90;;;;;;;-6.46;73.75;102761.26;1813216;78;21361;-62
2020/12/05 06:57:32;;;;;;;1999.90;999.90;;;;;;;-6.46;72.50;102759.41;1805724;78;21534;-70
2020/12/05 07:00:20;;;;;;;1999.90;999.90;;;;;;;-6.49;71.91;102752.97;1753060;81;21308;-70
2020/12/05 07:02:54;;;;;;;1999.90;999.90;;;;;;;-6.50;72.52;102762.04;1769072;80;21397;-61
2020/12/05 07:05:26;;;;;;;1999.90;999.90;;;;;;;-6.50;72.04;102752.11;1771010;80;20949;-63
2020/12/05 07:07:56;;;;;;;1999.90;999.90;;;;;;;-6.47;72.13;102756.86;1772725;80;21346;-62
2020/12/05 07:10:45;;;;;;;1999.90;999.90;;;;;;;-6.49;71.42;102755.66;1750663;80;21567;-69
2020/12/05 07:13:38;;;;;;;1999.90;999.90;;;;;;;-6.50;71.81;102752.61;1730594;81;21012;-62
2020/12/05 07:16:16;;;;;;;1999.90;999.90;;;;;;;-6.46;72.01;102751.83;1748530;80;21593;-69
2020/12/05 07:18:54;;;;;;;1999.90;999.90;;;;;;;-6.39;71.45;102753.80;1754429;80;21514;-69
2020/12/05 07:21:24;;;;;;;1999.90;999.90;;;;;;;-6.31;70.83;102758.47;1758806;80;21265;-70
2020/12/05 07:23:53;;;;;;;1999.90;999.90;;;;;;;-6.26;70.58;102768.32;1748195;80;20983;-62
2020/12/05 07:26:21;;;;;;;1999.90;999.90;;;;;;;-6.24;70.98;102762.29;1755780;80;20992;-64
2020/12/05 07:28:53;;;;;;;1999.90;999.90;;;;;;;-6.18;70.71;102760.36;1752833;80;21174;-62
2020/12/05 07:31:21;;;;;;;1999.90;999.90;;;;;;;-6.13;70.00;102755.88;1747722;81;20925;-61
2020/12/05 07:33:49;;;;;;;1999.90;999.90;;;;;;;-6.03;70.79;102761.59;1779789;80;21358;-61
2020/12/05 07:36:17;;;;;;;1999.90;999.90;;;;;;;-5.92;70.20;102751.98;1761019;80;21546;-62
2020/12/05 07:38:46;;;;;;;1999.90;999.90;;;;;;;-5.82;69.84;102751.07;1771964;80;20960;-62
2020/12/05 07:41:19;;;;;;;1999.90;999.90;;;;;;;-5.74;69.44;102752.03;1769906;80;21113;-72
2020/12/05 07:43:48;;;;;;;1999.90;999.90;;;;;;;-5.67;69.57;102751.78;1769522;80;21527;-70
2020/12/05 07:46:16;;;;;;;1999.90;999.90;;;;;;;-5.57;69.25;102749.05;1765648;80;21194;-70
2020/12/05 07:48:44;;;;;;;1999.90;999.90;;;;;;;-5.51;68.90;102750.64;1777803;79;21089;-68
2020/12/05 07:51:17;;;;;;;1999.90;999.90;;;;;;;-5.43;68.44;102758.49;1779080;79;21549;-63
2020/12/05 07:53:46;;;;;;;1999.90;999.90;;;;;;;-5.37;68.72;102753.34;1781873;79;21126;-62
2020/12/05 07:56:17;;;;;;;1999.90;999.90;;;;;;;-5.26;68.11;102758.53;1765878;79;21099;-70
2020/12/05 07:58:51;;;;;;;1999.90;999.90;;;;;;;-5.21;67.76;102740.03;1772141;79;22280;-70
2020/12/05 08:01:41;;;;;;;1999.90;999.90;;;;;;;-5.17;67.03;102741.95;1781069;79;21154;-69
2020/12/05 08:04:29;;;;;;;1999.90;999.90;;;;;;;-5.15;65.79;102735.05;1765529;80;21514;-62
2020/12/05 08:07:05;;;;;;;1999.90;999.90;;;;;;;-5.12;66.28;102741.50;1768430;79;20977;-69
2020/12/05 08:09:37;;;;;;;1999.90;999.90;;;;;;;-5.08;66.18;102737.00;1775888;79;21111;-62
2020/12/05 08:12:12;;;;;;;1999.90;999.90;;;;;;;-5.01;64.80;102732.68;1739111;81;21370;-70
2020/12/05 08:14:43;;;;;;;1999.90;999.90;;;;;;;-4.98;64.08;102731.52;1775605;80;21130;-62
2020/12/05 08:17:12;;;;;;;1999.90;999.90;;;;;;;-4.91;65.01;102730.75;1755885;80;21533;-61
2020/12/05 08:19:42;;;;;;;1999.90;999.90;;;;;;;-4.82;64.34;102734.38;1741738;81;21422;-62
2020/12/05 08:22:10;;;;;;;1999.90;999.90;;;;;;;-4.77;63.76;102736.62;1755613;80;21546;-62
2020/12/05 08:24:49;;;;;;;1999.90;999.90;;;;;;;-4.70;63.25;102725.54;1752628;81;21333;-62
2020/12/05 08:27:18;;;;;;;1999.90;999.90;;;;;;;-4.65;62.33;102725.42;1743812;81;20993;-70
2020/12/05 08:29:48;;;;;;;1999.90;999.90;;;;;;;-4.56;61.70;102727.69;1765663;80;20976;-70
2020/12/05 08:32:21;;;;;;;1999.90;999.90;;;;;;;-4.48;60.99;102725.05;1771982;80;21004;-62
2020/12/05 08:34:50;;;;;;;1999.90;999.90;;;;;;;-4.42;60.61;102727.63;1771456;80;21427;-62
2020/12/05 08:37:25;;;;;;;1999.90;999.90;;;;;;;-4.32;60.46;102721.62;1749387;81;21586;-62
2020/12/05 08:39:54;;;;;;;1999.90;999.90;;;;;;;-4.20;60.46;102729.81;1782573;80;21122;-62
2020/12/05 08:42:22;;;;;;;1999.90;999.90;;;;;;;-4.11;59.30;102723.95;1753472;81;21015;-62
2020/12/05 08:44:51;;;;;;;1999.90;999.90;;;;;;;-4.03;58.84;102718.09;1771182;79;20990;-62
2020/12/05 08:47:19;;;;;;;1999.90;999.90;;;;;;;-3.96;58.27;102713.74;1757433;81;21013;-62
2020/12/05 08:52:24;;;;;;;1999.90;999.90;;;;;;;-3.76;57.89;102712.15;1840186;76;27957;-70
2020/12/05 08:54:53;;;;;;;1999.90;999.90;;;;;;;-3.67;57.36;102707.97;1835142;77;20992;-71
2020/12/05 08:57:22;;;;;;;1999.90;999.90;;;;;;;-3.58;57.59;102704.28;1821919;77;21404;-62
2020/12/05 08:59:59;;;;;;;1999.90;999.90;;;;;;;-3.50;56.99;102696.70;1823108;77;20990;-70
2020/12/05 09:02:35;;;;;;;1999.90;999.90;;;;;;;-3.40;56.25;102701.47;1823663;77;20940;-63
2020/12/05 09:05:04;;;;;;;1999.90;999.90;;;;;;;-3.33;55.20;102697.59;1820543;77;21168;-63
2020/12/05 09:07:32;;;;;;;1999.90;999.90;;;;;;;-3.27;54.79;102701.84;1827318;77;20953;-63
2020/12/05 09:10:00;;;;;;;1999.90;999.90;;;;;;;-3.26;53.98;102699.98;1823458;77;21360;-63
2020/12/05 09:12:32;;;;;;;1999.90;999.90;;;;;;;-3.22;53.88;102693.22;1775836;79;21015;-63
2020/12/05 09:15:05;;;;;;;1999.90;999.90;;;;;;;-3.14;53.43;102692.39;1776580;79;20959;-69
2020/12/05 09:17:34;;;;;;;1999.90;999.90;;;;;;;-3.08;53.25;102695.28;1755396;80;20940;-71
2020/12/05 09:20:19;;;;;;;1999.90;999.90;;;;;;;-3.04;52.92;102689.87;1758106;80;21111;-70
2020/12/05 09:22:51;;;;;;;;;;;;;;;-3.00;53.63;102696.65;1755322;80;22637;-63
2020/12/05 09:25:35;;;;;;;1999.90;999.90;;;;;;;-2.95;52.02;102688.86;1748844;80;20595;-62
2020/12/05 09:28:16;;;;;;;1999.90;999.90;;;;;;;-2.93;51.98;102692.77;1755405;80;20969;-71
2020/12/05 09:30:44;;;;;;;1999.90;999.90;;;;;;;-2.86;52.62;102692.94;1743269;81;20985;-70
2020/12/05 09:33:16;;;;;;;1999.90;999.90;;;;;;;-2.79;52.31;102693.95;1749658;80;21133;-70
2020/12/05 09:35:45;;;;;;;1999.90;999.90;;;;;;;-2.73;52.67;102699.55;1745556;80;21329;-63
2020/12/05 09:38:13;;;;;;;1999.90;999.90;;;;;;;-2.71;53.79;102704.30;1755323;80;21016;-63
2020/12/05 09:40:41;;;;;;;1999.90;999.90;;;;;;;-2.65;54.67;102700.06;1754736;80;20988;-63
2020/12/05 09:43:09;;;;;;;1999.90;999.90;;;;;;;-2.60;55.03;102699.05;1751497;80;21131;-71
2020/12/05 09:45:37;;;;;;;1999.90;999.90;;;;;;;-2.57;54.70;102693.28;1751581;80;21119;-63
2020/12/05 09:48:06;;;;;;;1999.90;999.90;;;;;;;-2.55;54.74;102695.31;1758474;79;22254;-71
2020/12/05 09:50:34;;;;;;;1999.90;999.90;;;;;;;-2.49;55.36;102696.50;1744870;81;22605;-64
2020/12/05 09:53:02;;;;;;;1999.90;999.90;;;;;;;-2.44;54.38;102696.32;1760677;80;21099;-63
2020/12/05 09:55:30;;;;;;;1999.90;999.90;;;;;;;-2.40;54.09;102690.05;1781442;79;21074;-71
2020/12/05 09:57:59;;;;;;;1999.90;999.90;;;;;;;-2.37;54.76;102692.42;1759394;80;21000;-63
2020/12/05 10:00:26;;;;;;;1999.90;999.90;;;;;;;-2.33;54.21;102692.41;1787955;79;21357;-63
2020/12/05 10:02:55;;;;;;;1999.90;999.90;;;;;;;-2.30;54.34;102688.00;1788088;79;21001;-63
2020/12/05 10:05:23;;;;;;;1999.90;999.90;;;;;;;-2.29;54.02;102688.34;1787072;79;21030;-71
2020/12/05 10:07:51;;;;;;;1999.90;999.90;;;;;;;-2.20;54.38;102690.53;1784740;79;21158;-63
2020/12/05 10:10:19;;;;;;;1999.90;999.90;;;;;;;-2.07;52.80;102679.98;1786178;79;21110;-62
2020/12/05 10:12:47;;;;;;;1999.90;999.90;;;;;;;-1.97;50.60;102678.77;1754684;80;21311;-63
2020/12/05 10:15:15;;;;;;;1999.90;999.90;;;;;;;-1.93;49.91;102674.34;1779412;80;20968;-63
2020/12/05 10:17:43;;;;;;;1999.90;999.90;;;;;;;-1.89;50.52;102671.11;1760616;80;20969;-71
2020/12/05 10:20:11;;;;;;;1999.90;999.90;;;;;;;-1.85;51.18;102676.52;1770421;80;21502;-64
2020/12/05 10:22:39;;;;;;;1999.90;999.90;;;;;;;-1.75;50.14;102674.45;1749797;80;20976;-63
2020/12/05 10:25:09;;;;;;;1999.90;999.90;;;;;;;-1.60;51.42;102674.55;1769922;80;20987;-63
2020/12/05 10:27:38;;;;;;;1999.90;999.90;;;;;;;-1.51;51.78;102671.28;1750157;80;21150;-63
2020/12/05 10:30:08;;;;;;;1999.90;999.90;;;;;;;-1.45;51.61;102672.78;1771417;80;21109;-63
2020/12/05 10:32:35;;;;;;;1999.90;999.90;;;;;;;-1.40;51.36;102675.81;1758527;80;20984;-71
2020/12/05 10:35:03;;;;;;;1999.90;999.90;;;;;;;-1.37;50.82;102680.89;1777625;80;21802;-68
2020/12/05 10:37:31;;;;;;;1999.90;999.90;;;;;;;-1.36;50.17;102676.30;1759583;80;21326;-71
2020/12/05 10:39:59;;;;;;;1999.90;999.90;;;;;;;-1.37;50.09;102670.53;1777061;79;21015;-63
2020/12/05 10:42:27;;;;;;;1999.90;999.90;;;;;;;-1.39;50.52;102667.15;1758689;80;20968;-63
2020/12/05 10:44:57;;;;;;;1999.90;999.90;;;;;;;-1.37;50.03;102671.89;1750665;80;21585;-71
2020/12/05 10:47:24;;;;;;;1999.90;999.90;;;;;;;-1.35;49.02;102669.33;1761329;80;21079;-63
2020/12/05 10:49:53;;;;;;;1999.90;999.90;;;;;;;-1.31;49.20;102676.61;1758752;80;21564;-71
2020/12/05 10:52:21;;;;;;;1999.90;999.90;;;;;;;-1.27;49.05;102668.44;1752621;80;20980;-64
2020/12/05 10:54:49;;;;;;;1999.90;999.90;;;;;;;-1.26;49.49;102663.84;1748862;80;21589;-71
2020/12/05 10:57:17;;;;;;;1999.90;999.90;;;;;;;-1.24;49.22;102661.28;1752126;80;20992;-63
2020/12/05 10:59:45;;;;;;;1999.90;999.90;;;;;;;-1.20;49.68;102661.26;1743503;80;21127;-63
2020/12/05 11:02:13;;;;;;;1999.90;999.90;;;;;;;-1.16;48.70;102656.31;1752206;80;22285;-63
2020/12/05 11:04:41;;;;;;;1999.90;999.90;;;;;;;-1.14;48.98;102659.18;1742932;80;21020;-71
2020/12/05 11:07:08;;;;;;;1999.90;999.90;;;;;;;-1.12;48.61;102658.48;1752604;80;20984;-63
2020/12/05 11:09:37;;;;;;;1999.90;999.90;;;;;;;-1.11;48.06;102661.54;1741228;81;21581;-70
2020/12/05 11:12:07;;;;;;;1999.90;999.90;;;;;;;-1.11;47.88;102664.77;1730150;80;21565;-63
2020/12/05 11:14:35;;;;;;;1999.90;999.90;;;;;;;-1.11;47.70;102658.82;1752845;80;21353;-71